Boeing 737-800 самого большого лоукостера Америки съехал на снег в Неваде

Boeing 737-8H4WL авиакомпании Southwest Airlines (WN) соскользнул со взлётно-посадочной полосы аэропорта Омахи.

Инцидент произошёл 18 января в 14:03 по местному времени. На борту находились 150 пассажиров и 6 членов экипажа; пострадавших нет.

Самолёт под регистрационным номером N8687A*, выполнявший рейс WN1643 из Лас-Вегаса (LAS) в Омаху (OMA), успешно приземлился на ВПП 14R аэропорта назначения, но перебежал полосу примерно на 50 метров, съехав на грунт и оказавшись в 9 метрах правее её центральной оси.

Авиалайнер получил незначительные повреждения. Пассажиры были эвакуированы с помощью мобильных трапов и доставлены в терминал.

Пилоты предыдущего прибывшего в аэропорт рейса описали условия торможения на ВПП как «хорошие».

Авиакомпания описала инцидент как «благополучное приземление, после которого самолёт соскользнул на грунт во время руления».

Показания METAR

KOMA 182052Z 04012G22KT 1 1/2SM -FZDZ BR OVC008 M06/M08 A2997 RMK AO2 CIG 007V013 SLP162 P0000 60000 I1004 I3006 T10561078=
KOMA 182029Z 05009G18KT 1 1/2SM -FZDZ BR OVC008 M06/M08 A2997 RMK AO2 CIG 007V013 P0000 I1003 T10561078=
KOMA 181952Z 05009G19KT 2SM -FZDZ BR OVC009 M05/M07 A2996 RMK AO2 SNE24 CIG 006V012 SLP157 P0000 I1001 T10501072=
KOMA 181930Z 06014G21KT 040V100 1SM R14R/P6000FT -FZDZ BR OVC007 M06/M08 A2997 RMK AO2 SNE24 CIG 005V012 P0000 I1000 T10561078=

*для иллюстрации использован другой самолёт той же модификации

Происшествия с Boeing 737 поколения Next Generation

AllBoeing 737-800Boeing 737-900Boeing 737-700
Сильные вибрации вернули Boeing 737-900ER в аэропорт

Сильные вибрации вернули Boeing 737-900ER в аэропорт

Boeing 737-924ERWL авиакомпании United Airlines (UA) вернулся в аэропорт из-за вибраций в фюзеляже. Вскоре после

Бразильский Boeing 737-800 не взлетел из-за отказа двигателя CFM56

Бразильский Boeing 737-800 не взлетел из-за отказа двигателя CFM56

Boeing 737-8EHWL авиакомпании GOL Transportes Aéreos (G3) прервал разбег из-за отказа двигателя. Инцидент произошёл в

Boeing 737-800 авиакомпании El Al разгерметизировался при взлёте из Вены

Boeing 737-800 авиакомпании El Al разгерметизировался при взлёте из Вены

Boeing 737-8Q8WL авиакомпании El Al (LY) вернулся в Вену из-за разгерметизации салона. Вскоре после взлёта

Чешский Boeing 737-800 пролетел над Центральной Европой на одном моторе

Чешский Boeing 737-800 пролетел над Центральной Европой на одном моторе

Boeing 737-8CXWL авиакомпании Smartwings (QS) пролетел над Центральной Европой на одном моторе. Самолёт выполнял рейс

Отказ двигателя CFM56 не дал Boeing 737-900 авиакомпании United взлететь из Сан-Диего

Отказ двигателя CFM56 не дал Boeing 737-900 авиакомпании United взлететь из Сан-Диего

Boeing 737-924ERWL авиакомпании United Airlines (UA) прервал разбег в аэропорту Сан-Диего из-за отказа двигателя. Самолёт

Boeing 737-700 авиакомпании Smartavia вернулся в Самару из-за отказа системы вентиляции салона

Boeing 737-700 авиакомпании Smartavia вернулся в Самару из-за отказа системы вентиляции салона

Boeing 737-752WL авиакомпании Smartavia (5N) вернулся в Самару из-за отказа системы вентиляции салона. На высоте

Load More